sensor_id;sensor_type;location;lat;lon;timestamp;temperature;humidity
13446;DHT22;6795;51.232;3.764;2022-07-31T00:01:26;18.70;99.90
13446;DHT22;6795;51.232;3.764;2022-07-31T00:03:55;18.60;99.90
13446;DHT22;6795;51.232;3.764;2022-07-31T00:06:23;18.60;99.90
13446;DHT22;6795;51.232;3.764;2022-07-31T00:08:52;18.60;99.90
13446;DHT22;6795;51.232;3.764;2022-07-31T00:11:20;18.60;99.90
13446;DHT22;6795;51.232;3.764;2022-07-31T00:13:49;18.60;99.90
13446;DHT22;6795;51.232;3.764;2022-07-31T00:16:26;18.60;99.90
13446;DHT22;6795;51.232;3.764;2022-07-31T00:18:54;18.50;99.90
13446;DHT22;6795;51.232;3.764;2022-07-31T00:21:23;18.60;99.90
13446;DHT22;6795;51.232;3.764;2022-07-31T00:23:51;18.60;99.90
13446;DHT22;6795;51.232;3.764;2022-07-31T00:26:19;18.60;99.90
13446;DHT22;6795;51.232;3.764;2022-07-31T00:28:49;18.40;99.90
13446;DHT22;6795;51.232;3.764;2022-07-31T00:31:17;18.30;99.90
13446;DHT22;6795;51.232;3.764;2022-07-31T00:33:45;18.30;99.90
13446;DHT22;6795;51.232;3.764;2022-07-31T00:36:15;18.30;99.90
13446;DHT22;6795;51.232;3.764;2022-07-31T00:38:43;18.20;99.90
13446;DHT22;6795;51.232;3.764;2022-07-31T00:41:11;18.20;99.90
13446;DHT22;6795;51.232;3.764;2022-07-31T00:43:40;18.20;99.90
13446;DHT22;6795;51.232;3.764;2022-07-31T00:46:09;18.10;99.90
13446;DHT22;6795;51.232;3.764;2022-07-31T00:48:40;18.20;99.90
13446;DHT22;6795;51.232;3.764;2022-07-31T00:51:09;18.20;99.90
13446;DHT22;6795;51.232;3.764;2022-07-31T00:53:38;18.20;99.90
13446;DHT22;6795;51.232;3.764;2022-07-31T00:56:07;18.10;99.90
13446;DHT22;6795;51.232;3.764;2022-07-31T00:58:35;18.10;99.90
13446;DHT22;6795;51.232;3.764;2022-07-31T01:01:03;18.10;99.90
13446;DHT22;6795;51.232;3.764;2022-07-31T01:03:33;18.10;99.90
13446;DHT22;6795;51.232;3.764;2022-07-31T01:06:01;18.20;99.90
13446;DHT22;6795;51.232;3.764;2022-07-31T01:08:32;18.20;99.90
13446;DHT22;6795;51.232;3.764;2022-07-31T01:11:04;18.10;99.90
13446;DHT22;6795;51.232;3.764;2022-07-31T01:13:42;18.10;99.90
13446;DHT22;6795;51.232;3.764;2022-07-31T01:16:14;17.90;99.90
13446;DHT22;6795;51.232;3.764;2022-07-31T01:18:45;17.90;99.90
13446;DHT22;6795;51.232;3.764;2022-07-31T01:21:18;17.70;99.90
13446;DHT22;6795;51.232;3.764;2022-07-31T01:24:14;17.70;99.90
13446;DHT22;6795;51.232;3.764;2022-07-31T01:26:52;17.70;99.90
13446;DHT22;6795;51.232;3.764;2022-07-31T01:29:26;17.80;99.90
13446;DHT22;6795;51.232;3.764;2022-07-31T01:32:00;17.70;99.90
13446;DHT22;6795;51.232;3.764;2022-07-31T01:34:35;17.70;99.90
13446;DHT22;6795;51.232;3.764;2022-07-31T01:37:09;17.70;99.90
13446;DHT22;6795;51.232;3.764;2022-07-31T01:39:44;17.70;99.90
13446;DHT22;6795;51.232;3.764;2022-07-31T01:42:15;17.70;99.90
13446;DHT22;6795;51.232;3.764;2022-07-31T01:44:50;17.70;99.90
13446;DHT22;6795;51.232;3.764;2022-07-31T01:47:20;17.60;99.90
13446;DHT22;6795;51.232;3.764;2022-07-31T01:49:50;17.70;99.90
13446;DHT22;6795;51.232;3.764;2022-07-31T01:52:21;17.60;99.90
13446;DHT22;6795;51.232;3.764;2022-07-31T01:54:52;17.70;99.90
13446;DHT22;6795;51.232;3.764;2022-07-31T01:57:25;17.70;99.90
13446;DHT22;6795;51.232;3.764;2022-07-31T01:59:58;17.70;99.90
13446;DHT22;6795;51.232;3.764;2022-07-31T02:02:29;17.80;99.90
13446;DHT22;6795;51.232;3.764;2022-07-31T02:04:57;17.80;99.90
13446;DHT22;6795;51.232;3.764;2022-07-31T02:07:26;17.80;99.90
13446;DHT22;6795;51.232;3.764;2022-07-31T02:09:55;17.90;99.90
13446;DHT22;6795;51.232;3.764;2022-07-31T02:12:25;17.90;99.90
13446;DHT22;6795;51.232;3.764;2022-07-31T02:15:02;17.90;99.90
13446;DHT22;6795;51.232;3.764;2022-07-31T02:17:32;18.00;99.90
13446;DHT22;6795;51.232;3.764;2022-07-31T02:20:02;18.00;99.90
13446;DHT22;6795;51.232;3.764;2022-07-31T02:22:32;18.00;99.90
13446;DHT22;6795;51.232;3.764;2022-07-31T02:25:01;18.00;99.90
13446;DHT22;6795;51.232;3.764;2022-07-31T02:27:30;18.00;99.90
13446;DHT22;6795;51.232;3.764;2022-07-31T02:30:20;18.00;99.90
13446;DHT22;6795;51.232;3.764;2022-07-31T02:32:49;18.10;99.90
13446;DHT22;6795;51.232;3.764;2022-07-31T02:35:19;18.00;99.90
13446;DHT22;6795;51.232;3.764;2022-07-31T02:37:52;18.00;99.90
13446;DHT22;6795;51.232;3.764;2022-07-31T02:40:23;18.00;99.90
13446;DHT22;6795;51.232;3.764;2022-07-31T02:42:52;18.10;99.90
13446;DHT22;6795;51.232;3.764;2022-07-31T02:45:22;18.10;99.90
13446;DHT22;6795;51.232;3.764;2022-07-31T02:47:51;18.10;99.90
13446;DHT22;6795;51.232;3.764;2022-07-31T02:50:21;18.00;99.90
13446;DHT22;6795;51.232;3.764;2022-07-31T02:52:50;18.10;99.90
13446;DHT22;6795;51.232;3.764;2022-07-31T02:55:18;18.10;99.90
13446;DHT22;6795;51.232;3.764;2022-07-31T02:57:47;18.10;99.90
13446;DHT22;6795;51.232;3.764;2022-07-31T03:00:21;18.10;99.90
13446;DHT22;6795;51.232;3.764;2022-07-31T03:02:53;18.10;99.90
13446;DHT22;6795;51.232;3.764;2022-07-31T03:05:24;18.00;99.90
13446;DHT22;6795;51.232;3.764;2022-07-31T03:07:52;18.00;99.90
13446;DHT22;6795;51.232;3.764;2022-07-31T03:10:21;17.90;99.90
13446;DHT22;6795;51.232;3.764;2022-07-31T03:12:51;17.80;99.90
13446;DHT22;6795;51.232;3.764;2022-07-31T03:15:22;17.90;99.90
13446;DHT22;6795;51.232;3.764;2022-07-31T03:17:52;17.90;99.90
13446;DHT22;6795;51.232;3.764;2022-07-31T03:20:21;17.80;99.90
13446;DHT22;6795;51.232;3.764;2022-07-31T03:22:50;17.70;99.90
13446;DHT22;6795;51.232;3.764;2022-07-31T03:25:19;17.80;99.90
13446;DHT22;6795;51.232;3.764;2022-07-31T03:27:48;17.70;99.90
13446;DHT22;6795;51.232;3.764;2022-07-31T03:30:24;17.70;99.90
13446;DHT22;6795;51.232;3.764;2022-07-31T03:32:52;17.60;99.90
13446;DHT22;6795;51.232;3.764;2022-07-31T03:35:20;17.60;99.90
13446;DHT22;6795;51.232;3.764;2022-07-31T03:37:49;17.60;99.90
13446;DHT22;6795;51.232;3.764;2022-07-31T03:40:18;17.60;99.90
13446;DHT22;6795;51.232;3.764;2022-07-31T03:42:49;17.60;99.90
13446;DHT22;6795;51.232;3.764;2022-07-31T03:45:18;17.60;99.90
13446;DHT22;6795;51.232;3.764;2022-07-31T03:47:49;17.60;99.90
13446;DHT22;6795;51.232;3.764;2022-07-31T03:50:17;17.50;99.90
13446;DHT22;6795;51.232;3.764;2022-07-31T03:52:46;17.60;99.90
13446;DHT22;6795;51.232;3.764;2022-07-31T03:55:15;17.50;99.90
13446;DHT22;6795;51.232;3.764;2022-07-31T03:57:44;17.50;99.90
13446;DHT22;6795;51.232;3.764;2022-07-31T04:00:14;17.50;99.90
13446;DHT22;6795;51.232;3.764;2022-07-31T04:03:07;17.50;99.90
13446;DHT22;6795;51.232;3.764;2022-07-31T04:05:36;17.50;99.90
13446;DHT22;6795;51.232;3.764;2022-07-31T04:08:05;17.60;99.90
13446;DHT22;6795;51.232;3.764;2022-07-31T04:10:34;17.60;99.90
13446;DHT22;6795;51.232;3.764;2022-07-31T04:13:04;17.60;99.90
13446;DHT22;6795;51.232;3.764;2022-07-31T04:15:32;17.60;99.90
13446;DHT22;6795;51.232;3.764;2022-07-31T04:18:00;17.60;99.90
13446;DHT22;6795;51.232;3.764;2022-07-31T04:20:30;17.60;99.90
13446;DHT22;6795;51.232;3.764;2022-07-31T04:22:58;17.70;99.90
13446;DHT22;6795;51.232;3.764;2022-07-31T04:25:28;17.70;99.90
13446;DHT22;6795;51.232;3.764;2022-07-31T04:27:57;17.70;99.90
13446;DHT22;6795;51.232;3.764;2022-07-31T04:30:27;17.70;99.90
13446;DHT22;6795;51.232;3.764;2022-07-31T04:32:55;17.70;99.90
13446;DHT22;6795;51.232;3.764;2022-07-31T04:35:25;17.70;99.90
13446;DHT22;6795;51.232;3.764;2022-07-31T04:37:55;17.70;99.90
13446;DHT22;6795;51.232;3.764;2022-07-31T04:40:25;17.80;99.90
13446;DHT22;6795;51.232;3.764;2022-07-31T04:42:53;17.80;99.90
13446;DHT22;6795;51.232;3.764;2022-07-31T04:45:22;17.90;99.90
13446;DHT22;6795;51.232;3.764;2022-07-31T04:47:50;17.80;99.90
13446;DHT22;6795;51.232;3.764;2022-07-31T04:50:18;17.80;99.90
13446;DHT22;6795;51.232;3.764;2022-07-31T04:52:47;17.80;99.90
13446;DHT22;6795;51.232;3.764;2022-07-31T04:55:17;17.90;99.90
13446;DHT22;6795;51.232;3.764;2022-07-31T04:57:45;18.00;99.90
13446;DHT22;6795;51.232;3.764;2022-07-31T05:00:16;18.00;99.90
13446;DHT22;6795;51.232;3.764;2022-07-31T05:02:45;18.00;99.90
13446;DHT22;6795;51.232;3.764;2022-07-31T05:05:13;18.00;99.90
13446;DHT22;6795;51.232;3.764;2022-07-31T05:07:43;18.10;99.90
13446;DHT22;6795;51.232;3.764;2022-07-31T05:10:11;18.10;99.90
13446;DHT22;6795;51.232;3.764;2022-07-31T05:13:01;18.10;99.90
13446;DHT22;6795;51.232;3.764;2022-07-31T05:15:30;18.10;99.90
13446;DHT22;6795;51.232;3.764;2022-07-31T05:17:58;18.20;99.90
13446;DHT22;6795;51.232;3.764;2022-07-31T05:20:26;18.20;99.90
13446;DHT22;6795;51.232;3.764;2022-07-31T05:22:55;18.20;99.90
13446;DHT22;6795;51.232;3.764;2022-07-31T05:25:23;18.30;99.90
13446;DHT22;6795;51.232;3.764;2022-07-31T05:27:51;18.30;99.90
13446;DHT22;6795;51.232;3.764;2022-07-31T05:30:21;18.40;99.90
13446;DHT22;6795;51.232;3.764;2022-07-31T05:32:56;18.40;99.90
13446;DHT22;6795;51.232;3.764;2022-07-31T05:35:25;18.50;99.90
13446;DHT22;6795;51.232;3.764;2022-07-31T05:37:53;18.50;99.90
13446;DHT22;6795;51.232;3.764;2022-07-31T05:40:21;18.50;99.90
13446;DHT22;6795;51.232;3.764;2022-07-31T05:42:49;18.60;99.90
13446;DHT22;6795;51.232;3.764;2022-07-31T05:45:18;18.60;99.90
13446;DHT22;6795;51.232;3.764;2022-07-31T05:47:47;18.70;99.90
13446;DHT22;6795;51.232;3.764;2022-07-31T05:50:16;18.70;99.90
13446;DHT22;6795;51.232;3.764;2022-07-31T05:52:44;18.80;99.90
13446;DHT22;6795;51.232;3.764;2022-07-31T05:55:13;18.80;99.90
13446;DHT22;6795;51.232;3.764;2022-07-31T05:57:41;18.90;99.90
13446;DHT22;6795;51.232;3.764;2022-07-31T06:00:10;18.90;99.90
13446;DHT22;6795;51.232;3.764;2022-07-31T06:02:40;19.00;99.90
13446;DHT22;6795;51.232;3.764;2022-07-31T06:05:11;19.10;99.90
13446;DHT22;6795;51.232;3.764;2022-07-31T06:07:40;19.20;99.90
13446;DHT22;6795;51.232;3.764;2022-07-31T06:10:19;19.40;99.90
13446;DHT22;6795;51.232;3.764;2022-07-31T06:12:47;19.40;99.90
13446;DHT22;6795;51.232;3.764;2022-07-31T06:15:16;19.50;99.90
13446;DHT22;6795;51.232;3.764;2022-07-31T06:17:44;19.50;99.90
13446;DHT22;6795;51.232;3.764;2022-07-31T06:20:14;19.60;99.90
13446;DHT22;6795;51.232;3.764;2022-07-31T06:22:42;19.50;99.90
13446;DHT22;6795;51.232;3.764;2022-07-31T06:25:11;19.50;99.90
13446;DHT22;6795;51.232;3.764;2022-07-31T06:27:41;19.60;99.90
13446;DHT22;6795;51.232;3.764;2022-07-31T06:30:12;19.70;99.90
13446;DHT22;6795;51.232;3.764;2022-07-31T06:32:41;19.80;99.90
13446;DHT22;6795;51.232;3.764;2022-07-31T06:35:09;19.80;99.90
13446;DHT22;6795;51.232;3.764;2022-07-31T06:37:39;19.80;99.90
13446;DHT22;6795;51.232;3.764;2022-07-31T06:40:08;19.80;99.90
13446;DHT22;6795;51.232;3.764;2022-07-31T06:42:39;19.80;99.90
13446;DHT22;6795;51.232;3.764;2022-07-31T06:45:09;19.80;99.90
13446;DHT22;6795;51.232;3.764;2022-07-31T06:47:37;19.70;99.90
13446;DHT22;6795;51.232;3.764;2022-07-31T06:50:07;19.70;99.90
13446;DHT22;6795;51.232;3.764;2022-07-31T06:52:36;19.70;99.90
13446;DHT22;6795;51.232;3.764;2022-07-31T06:55:07;19.70;99.90
13446;DHT22;6795;51.232;3.764;2022-07-31T06:57:36;19.80;99.90
13446;DHT22;6795;51.232;3.764;2022-07-31T07:00:06;20.10;99.90
13446;DHT22;6795;51.232;3.764;2022-07-31T07:02:46;20.40;99.90
13446;DHT22;6795;51.232;3.764;2022-07-31T07:05:14;20.80;99.90
13446;DHT22;6795;51.232;3.764;2022-07-31T07:07:43;20.80;99.90
13446;DHT22;6795;51.232;3.764;2022-07-31T07:10:12;21.10;99.90
13446;DHT22;6795;51.232;3.764;2022-07-31T07:12:40;21.60;99.90
13446;DHT22;6795;51.232;3.764;2022-07-31T07:15:09;22.10;99.90
13446;DHT22;6795;51.232;3.764;2022-07-31T07:17:37;22.20;99.90
13446;DHT22;6795;51.232;3.764;2022-07-31T07:20:06;22.20;99.90
13446;DHT22;6795;51.232;3.764;2022-07-31T07:22:36;22.40;99.90
13446;DHT22;6795;51.232;3.764;2022-07-31T07:25:05;22.50;99.90
13446;DHT22;6795;51.232;3.764;2022-07-31T07:27:34;22.80;99.90
13446;DHT22;6795;51.232;3.764;2022-07-31T07:30:06;22.90;99.90
13446;DHT22;6795;51.232;3.764;2022-07-31T07:32:34;22.80;99.90
13446;DHT22;6795;51.232;3.764;2022-07-31T07:35:02;22.80;99.90
13446;DHT22;6795;51.232;3.764;2022-07-31T07:37:32;23.00;99.90
13446;DHT22;6795;51.232;3.764;2022-07-31T07:40:07;23.30;99.90
13446;DHT22;6795;51.232;3.764;2022-07-31T07:42:36;23.40;99.90
13446;DHT22;6795;51.232;3.764;2022-07-31T07:45:05;23.50;99.90
13446;DHT22;6795;51.232;3.764;2022-07-31T07:47:34;23.50;99.90
13446;DHT22;6795;51.232;3.764;2022-07-31T07:50:23;23.50;99.90
13446;DHT22;6795;51.232;3.764;2022-07-31T07:52:55;23.20;99.90
13446;DHT22;6795;51.232;3.764;2022-07-31T07:55:26;23.30;99.90
13446;DHT22;6795;51.232;3.764;2022-07-31T07:58:05;23.30;99.90
13446;DHT22;6795;51.232;3.764;2022-07-31T08:00:38;23.10;99.90
13446;DHT22;6795;51.232;3.764;2022-07-31T08:03:07;23.30;99.90
13446;DHT22;6795;51.232;3.764;2022-07-31T08:05:57;23.40;99.90
13446;DHT22;6795;51.232;3.764;2022-07-31T08:08:25;23.80;99.90
13446;DHT22;6795;51.232;3.764;2022-07-31T08:10:54;23.90;99.90
13446;DHT22;6795;51.232;3.764;2022-07-31T08:13:24;23.80;99.90
13446;DHT22;6795;51.232;3.764;2022-07-31T08:15:52;23.70;99.90
13446;DHT22;6795;51.232;3.764;2022-07-31T08:18:21;23.70;99.90
13446;DHT22;6795;51.232;3.764;2022-07-31T08:20:54;23.70;99.90
13446;DHT22;6795;51.232;3.764;2022-07-31T08:23:22;23.70;99.90
13446;DHT22;6795;51.232;3.764;2022-07-31T08:25:51;23.80;99.90
13446;DHT22;6795;51.232;3.764;2022-07-31T08:28:24;23.90;99.90
13446;DHT22;6795;51.232;3.764;2022-07-31T08:30:53;23.80;99.90
13446;DHT22;6795;51.232;3.764;2022-07-31T08:33:21;23.60;99.90
13446;DHT22;6795;51.232;3.764;2022-07-31T08:35:52;23.60;99.90
13446;DHT22;6795;51.232;3.764;2022-07-31T08:38:20;23.40;99.90
13446;DHT22;6795;51.232;3.764;2022-07-31T08:40:49;23.50;99.90
13446;DHT22;6795;51.232;3.764;2022-07-31T08:43:17;23.50;99.90
13446;DHT22;6795;51.232;3.764;2022-07-31T08:46:07;23.50;99.90
13446;DHT22;6795;51.232;3.764;2022-07-31T08:48:39;23.40;99.90
13446;DHT22;6795;51.232;3.764;2022-07-31T08:51:12;23.40;99.90
13446;DHT22;6795;51.232;3.764;2022-07-31T08:53:41;23.40;99.90
13446;DHT22;6795;51.232;3.764;2022-07-31T08:56:11;23.50;99.90
13446;DHT22;6795;51.232;3.764;2022-07-31T08:58:40;23.60;99.90
13446;DHT22;6795;51.232;3.764;2022-07-31T09:01:11;23.50;99.90
13446;DHT22;6795;51.232;3.764;2022-07-31T09:03:40;23.50;99.90
13446;DHT22;6795;51.232;3.764;2022-07-31T09:06:09;23.50;99.90
13446;DHT22;6795;51.232;3.764;2022-07-31T09:08:38;23.40;99.90
13446;DHT22;6795;51.232;3.764;2022-07-31T09:11:09;23.60;99.90
13446;DHT22;6795;51.232;3.764;2022-07-31T09:13:38;23.80;99.90
13446;DHT22;6795;51.232;3.764;2022-07-31T09:16:07;23.90;99.90
13446;DHT22;6795;51.232;3.764;2022-07-31T09:18:37;24.20;99.90
13446;DHT22;6795;51.232;3.764;2022-07-31T09:21:06;24.40;99.90
13446;DHT22;6795;51.232;3.764;2022-07-31T09:23:45;24.60;99.90
13446;DHT22;6795;51.232;3.764;2022-07-31T09:26:14;24.50;99.90
13446;DHT22;6795;51.232;3.764;2022-07-31T09:28:44;24.50;99.90
13446;DHT22;6795;51.232;3.764;2022-07-31T09:31:13;24.70;99.90
13446;DHT22;6795;51.232;3.764;2022-07-31T09:33:45;24.70;99.90
13446;DHT22;6795;51.232;3.764;2022-07-31T09:36:13;24.60;99.90
13446;DHT22;6795;51.232;3.764;2022-07-31T09:38:42;24.50;99.90
13446;DHT22;6795;51.232;3.764;2022-07-31T09:41:13;24.30;99.90
13446;DHT22;6795;51.232;3.764;2022-07-31T09:44:02;23.90;99.90
13446;DHT22;6795;51.232;3.764;2022-07-31T09:46:39;23.60;99.90
13446;DHT22;6795;51.232;3.764;2022-07-31T09:49:09;23.50;99.90
13446;DHT22;6795;51.232;3.764;2022-07-31T09:51:38;23.40;99.90
13446;DHT22;6795;51.232;3.764;2022-07-31T09:54:18;23.50;99.90
13446;DHT22;6795;51.232;3.764;2022-07-31T09:56:46;23.50;99.90
13446;DHT22;6795;51.232;3.764;2022-07-31T09:59:16;23.70;99.90
13446;DHT22;6795;51.232;3.764;2022-07-31T10:01:46;24.30;99.90
13446;DHT22;6795;51.232;3.764;2022-07-31T10:04:18;24.60;99.90
13446;DHT22;6795;51.232;3.764;2022-07-31T10:06:47;24.60;99.90
13446;DHT22;6795;51.232;3.764;2022-07-31T10:09:19;24.50;99.90
13446;DHT22;6795;51.232;3.764;2022-07-31T10:11:48;24.30;99.90
13446;DHT22;6795;51.232;3.764;2022-07-31T10:14:21;24.00;99.90
13446;DHT22;6795;51.232;3.764;2022-07-31T10:16:56;24.00;99.90
13446;DHT22;6795;51.232;3.764;2022-07-31T10:19:30;24.20;99.90
13446;DHT22;6795;51.232;3.764;2022-07-31T10:22:01;24.20;99.90
13446;DHT22;6795;51.232;3.764;2022-07-31T10:24:31;24.10;99.90
13446;DHT22;6795;51.232;3.764;2022-07-31T10:27:00;24.00;99.90
13446;DHT22;6795;51.232;3.764;2022-07-31T10:29:36;24.10;99.90
13446;DHT22;6795;51.232;3.764;2022-07-31T10:32:06;24.30;99.90
13446;DHT22;6795;51.232;3.764;2022-07-31T10:34:37;24.70;99.90
13446;DHT22;6795;51.232;3.764;2022-07-31T10:37:08;24.90;99.90
13446;DHT22;6795;51.232;3.764;2022-07-31T10:39:44;25.00;99.90
13446;DHT22;6795;51.232;3.764;2022-07-31T10:42:21;25.10;99.90
13446;DHT22;6795;51.232;3.764;2022-07-31T10:44:57;25.40;99.90
13446;DHT22;6795;51.232;3.764;2022-07-31T10:47:30;25.90;99.90
13446;DHT22;6795;51.232;3.764;2022-07-31T10:50:01;25.90;99.90
13446;DHT22;6795;51.232;3.764;2022-07-31T10:52:32;26.20;99.90
13446;DHT22;6795;51.232;3.764;2022-07-31T10:55:01;26.10;99.90
13446;DHT22;6795;51.232;3.764;2022-07-31T10:57:32;25.90;99.90
13446;DHT22;6795;51.232;3.764;2022-07-31T11:00:21;25.70;99.90
13446;DHT22;6795;51.232;3.764;2022-07-31T11:02:56;25.60;99.90
13446;DHT22;6795;51.232;3.764;2022-07-31T11:05:25;25.70;99.90
13446;DHT22;6795;51.232;3.764;2022-07-31T11:08:00;25.90;99.90
13446;DHT22;6795;51.232;3.764;2022-07-31T11:10:28;26.20;99.90
13446;DHT22;6795;51.232;3.764;2022-07-31T11:13:00;26.20;99.90
13446;DHT22;6795;51.232;3.764;2022-07-31T11:15:31;25.90;99.90
13446;DHT22;6795;51.232;3.764;2022-07-31T11:18:15;25.90;99.90
13446;DHT22;6795;51.232;3.764;2022-07-31T11:21:01;25.60;99.90
13446;DHT22;6795;51.232;3.764;2022-07-31T11:23:48;25.70;99.90
13446;DHT22;6795;51.232;3.764;2022-07-31T11:26:29;25.90;99.90
13446;DHT22;6795;51.232;3.764;2022-07-31T11:29:07;25.70;99.90
13446;DHT22;6795;51.232;3.764;2022-07-31T11:31:58;25.40;99.90
13446;DHT22;6795;51.232;3.764;2022-07-31T11:34:27;25.50;99.90
13446;DHT22;6795;51.232;3.764;2022-07-31T11:36:57;25.30;99.90
13446;DHT22;6795;51.232;3.764;2022-07-31T11:39:25;25.40;99.90
13446;DHT22;6795;51.232;3.764;2022-07-31T11:42:03;25.60;99.90
13446;DHT22;6795;51.232;3.764;2022-07-31T11:44:34;25.70;99.90
13446;DHT22;6795;51.232;3.764;2022-07-31T11:47:02;26.20;99.90
13446;DHT22;6795;51.232;3.764;2022-07-31T11:49:59;26.50;99.90
13446;DHT22;6795;51.232;3.764;2022-07-31T11:52:29;27.00;99.90
13446;DHT22;6795;51.232;3.764;2022-07-31T11:55:05;27.20;99.90
13446;DHT22;6795;51.232;3.764;2022-07-31T11:57:36;27.20;99.90
13446;DHT22;6795;51.232;3.764;2022-07-31T12:00:19;26.80;99.90
13446;DHT22;6795;51.232;3.764;2022-07-31T12:02:55;26.70;99.90
13446;DHT22;6795;51.232;3.764;2022-07-31T12:05:24;26.00;99.90
13446;DHT22;6795;51.232;3.764;2022-07-31T12:08:06;25.80;99.90
13446;DHT22;6795;51.232;3.764;2022-07-31T12:10:35;25.90;99.90
13446;DHT22;6795;51.232;3.764;2022-07-31T12:13:04;26.20;99.90
13446;DHT22;6795;51.232;3.764;2022-07-31T12:15:32;26.50;99.90
13446;DHT22;6795;51.232;3.764;2022-07-31T12:18:02;26.60;99.90
13446;DHT22;6795;51.232;3.764;2022-07-31T12:20:33;26.40;99.90
13446;DHT22;6795;51.232;3.764;2022-07-31T12:23:06;26.50;99.90
13446;DHT22;6795;51.232;3.764;2022-07-31T12:25:54;26.60;99.90
13446;DHT22;6795;51.232;3.764;2022-07-31T12:28:23;26.80;99.90
13446;DHT22;6795;51.232;3.764;2022-07-31T12:30:57;26.70;99.90
13446;DHT22;6795;51.232;3.764;2022-07-31T12:33:26;26.50;99.90
13446;DHT22;6795;51.232;3.764;2022-07-31T12:35:56;26.30;99.90
13446;DHT22;6795;51.232;3.764;2022-07-31T12:38:29;26.40;99.90
13446;DHT22;6795;51.232;3.764;2022-07-31T12:41:12;26.60;99.90
13446;DHT22;6795;51.232;3.764;2022-07-31T12:43:40;26.80;99.90
13446;DHT22;6795;51.232;3.764;2022-07-31T12:46:19;27.10;99.90
13446;DHT22;6795;51.232;3.764;2022-07-31T12:48:48;27.30;99.90
13446;DHT22;6795;51.232;3.764;2022-07-31T12:51:17;27.20;99.90
13446;DHT22;6795;51.232;3.764;2022-07-31T12:54:07;27.30;99.90
13446;DHT22;6795;51.232;3.764;2022-07-31T12:56:37;27.20;99.90
13446;DHT22;6795;51.232;3.764;2022-07-31T12:59:06;27.20;99.90
13446;DHT22;6795;51.232;3.764;2022-07-31T13:01:37;27.30;99.90
13446;DHT22;6795;51.232;3.764;2022-07-31T13:04:06;27.30;99.90
13446;DHT22;6795;51.232;3.764;2022-07-31T13:06:46;26.90;99.90
13446;DHT22;6795;51.232;3.764;2022-07-31T13:09:19;26.50;99.90
13446;DHT22;6795;51.232;3.764;2022-07-31T13:11:48;26.70;99.90
13446;DHT22;6795;51.232;3.764;2022-07-31T13:14:23;26.60;99.90
13446;DHT22;6795;51.232;3.764;2022-07-31T13:16:53;26.80;99.90
13446;DHT22;6795;51.232;3.764;2022-07-31T13:19:21;26.60;99.90
13446;DHT22;6795;51.232;3.764;2022-07-31T13:21:50;26.50;99.90
13446;DHT22;6795;51.232;3.764;2022-07-31T13:24:24;26.40;99.90
13446;DHT22;6795;51.232;3.764;2022-07-31T13:26:52;26.40;99.90
13446;DHT22;6795;51.232;3.764;2022-07-31T13:29:20;26.20;99.90
13446;DHT22;6795;51.232;3.764;2022-07-31T13:31:49;26.30;99.90
13446;DHT22;6795;51.232;3.764;2022-07-31T13:34:17;26.30;99.90
13446;DHT22;6795;51.232;3.764;2022-07-31T13:36:45;26.40;99.90
13446;DHT22;6795;51.232;3.764;2022-07-31T13:39:14;26.20;99.90
13446;DHT22;6795;51.232;3.764;2022-07-31T13:41:43;26.20;99.90
13446;DHT22;6795;51.232;3.764;2022-07-31T13:44:11;26.20;99.90
13446;DHT22;6795;51.232;3.764;2022-07-31T13:46:40;26.40;99.90
13446;DHT22;6795;51.232;3.764;2022-07-31T13:49:08;26.40;99.90
13446;DHT22;6795;51.232;3.764;2022-07-31T13:51:38;26.40;99.90
13446;DHT22;6795;51.232;3.764;2022-07-31T13:54:06;26.20;99.90
13446;DHT22;6795;51.232;3.764;2022-07-31T13:56:35;26.00;99.90
13446;DHT22;6795;51.232;3.764;2022-07-31T13:59:11;25.90;99.90
13446;DHT22;6795;51.232;3.764;2022-07-31T14:01:40;25.70;99.90
13446;DHT22;6795;51.232;3.764;2022-07-31T14:04:29;25.60;99.90
13446;DHT22;6795;51.232;3.764;2022-07-31T14:07:05;25.50;99.90
13446;DHT22;6795;51.232;3.764;2022-07-31T14:09:35;25.50;99.90
13446;DHT22;6795;51.232;3.764;2022-07-31T14:12:04;25.70;99.90
13446;DHT22;6795;51.232;3.764;2022-07-31T14:14:34;25.80;99.90
13446;DHT22;6795;51.232;3.764;2022-07-31T14:17:02;25.80;99.90
13446;DHT22;6795;51.232;3.764;2022-07-31T14:19:31;25.70;99.90
13446;DHT22;6795;51.232;3.764;2022-07-31T14:22:10;25.60;99.90
13446;DHT22;6795;51.232;3.764;2022-07-31T14:24:39;25.50;99.90
13446;DHT22;6795;51.232;3.764;2022-07-31T14:27:17;25.40;99.90
13446;DHT22;6795;51.232;3.764;2022-07-31T14:29:47;25.60;99.90
13446;DHT22;6795;51.232;3.764;2022-07-31T14:32:16;25.60;99.90
13446;DHT22;6795;51.232;3.764;2022-07-31T14:34:45;25.70;99.90
13446;DHT22;6795;51.232;3.764;2022-07-31T14:37:13;25.80;99.90
13446;DHT22;6795;51.232;3.764;2022-07-31T14:39:41;26.00;99.90
13446;DHT22;6795;51.232;3.764;2022-07-31T14:42:10;26.10;99.90
13446;DHT22;6795;51.232;3.764;2022-07-31T14:44:39;26.10;99.90
13446;DHT22;6795;51.232;3.764;2022-07-31T14:47:10;25.90;99.90
13446;DHT22;6795;51.232;3.764;2022-07-31T14:49:39;25.80;99.90
13446;DHT22;6795;51.232;3.764;2022-07-31T14:52:28;25.80;99.90
13446;DHT22;6795;51.232;3.764;2022-07-31T14:54:56;25.70;99.90
13446;DHT22;6795;51.232;3.764;2022-07-31T14:57:25;25.70;99.90
13446;DHT22;6795;51.232;3.764;2022-07-31T14:59:53;25.60;99.90
13446;DHT22;6795;51.232;3.764;2022-07-31T15:02:23;25.50;99.90
13446;DHT22;6795;51.232;3.764;2022-07-31T15:04:51;25.30;99.90
13446;DHT22;6795;51.232;3.764;2022-07-31T15:07:20;25.20;99.90
13446;DHT22;6795;51.232;3.764;2022-07-31T15:10:09;25.20;99.90
13446;DHT22;6795;51.232;3.764;2022-07-31T15:12:38;25.00;99.90
13446;DHT22;6795;51.232;3.764;2022-07-31T15:15:07;24.90;99.90
13446;DHT22;6795;51.232;3.764;2022-07-31T15:17:37;25.00;99.90
13446;DHT22;6795;51.232;3.764;2022-07-31T15:20:06;24.90;99.90
13446;DHT22;6795;51.232;3.764;2022-07-31T15:22:34;25.00;99.90
13446;DHT22;6795;51.232;3.764;2022-07-31T15:25:03;25.00;99.90
13446;DHT22;6795;51.232;3.764;2022-07-31T15:27:31;24.90;99.90
13446;DHT22;6795;51.232;3.764;2022-07-31T15:29:59;25.00;99.90
13446;DHT22;6795;51.232;3.764;2022-07-31T15:32:34;25.10;99.90
13446;DHT22;6795;51.232;3.764;2022-07-31T15:35:05;25.00;99.90
13446;DHT22;6795;51.232;3.764;2022-07-31T15:37:35;24.90;99.90
13446;DHT22;6795;51.232;3.764;2022-07-31T15:40:06;25.00;99.90
13446;DHT22;6795;51.232;3.764;2022-07-31T15:42:36;25.00;99.90
13446;DHT22;6795;51.232;3.764;2022-07-31T15:45:08;25.10;99.90
13446;DHT22;6795;51.232;3.764;2022-07-31T15:47:37;25.00;99.90
13446;DHT22;6795;51.232;3.764;2022-07-31T15:50:08;25.00;99.90
13446;DHT22;6795;51.232;3.764;2022-07-31T15:52:37;24.90;99.90
13446;DHT22;6795;51.232;3.764;2022-07-31T15:55:07;24.90;99.90
13446;DHT22;6795;51.232;3.764;2022-07-31T15:57:35;24.70;99.90
13446;DHT22;6795;51.232;3.764;2022-07-31T16:00:05;24.80;99.90
13446;DHT22;6795;51.232;3.764;2022-07-31T16:02:35;24.80;99.90
13446;DHT22;6795;51.232;3.764;2022-07-31T16:05:06;24.80;99.90
13446;DHT22;6795;51.232;3.764;2022-07-31T16:07:47;24.80;99.90
13446;DHT22;6795;51.232;3.764;2022-07-31T16:10:36;24.60;99.90